createdAt,value
2023-11-23T00:00:45.964Z,72.64
2023-11-23T00:03:12.546Z,72.29
2023-11-23T00:05:39.095Z,71.77
2023-11-23T00:08:05.832Z,72.15
2023-11-23T00:10:32.323Z,72.51
2023-11-23T00:12:58.850Z,73.21
2023-11-23T00:15:25.346Z,72.67
2023-11-23T00:17:52.233Z,72.88
2023-11-23T00:20:18.970Z,72.41
2023-11-23T00:22:45.419Z,73.88
2023-11-23T00:25:11.909Z,73.74
2023-11-23T00:27:39.191Z,73.58
2023-11-23T00:30:06.573Z,74.66
2023-11-23T00:32:33.166Z,74.56
2023-11-23T00:34:59.758Z,74.39
2023-11-23T00:37:26.609Z,74.78
2023-11-23T00:39:54.144Z,75.22
2023-11-23T00:42:21.441Z,74.83
2023-11-23T00:44:47.973Z,75.82
2023-11-23T00:47:14.555Z,75.55
2023-11-23T00:49:41.071Z,76.49
2023-11-23T00:52:07.658Z,76.59
2023-11-23T00:54:34.575Z,75.97
2023-11-23T00:57:01.157Z,76.10
2023-11-23T00:59:27.740Z,76.27
2023-11-23T01:01:54.496Z,76.04
2023-11-23T01:04:21.150Z,76.88
2023-11-23T01:06:47.700Z,77.38
2023-11-23T01:09:14.253Z,77.32
2023-11-23T01:11:40.851Z,77.21
2023-11-23T01:14:08.598Z,77.94
2023-11-23T01:16:35.218Z,77.45
2023-11-23T01:19:01.711Z,77.45
2023-11-23T01:21:28.361Z,78.08
2023-11-23T01:23:54.996Z,78.43
2023-11-23T01:26:21.518Z,78.67
2023-11-23T01:28:48.055Z,78.29
2023-11-23T01:31:14.833Z,79.07
2023-11-23T01:33:42.484Z,78.73
2023-11-23T01:36:09.272Z,78.80
2023-11-23T01:38:35.854Z,79.14
2023-11-23T01:41:02.304Z,78.58
2023-11-23T01:43:28.935Z,79.16
2023-11-23T01:45:55.574Z,79.33
2023-11-23T01:48:22.504Z,79.34
2023-11-23T01:50:50.554Z,79.66
2023-11-23T01:53:18.173Z,79.56
2023-11-23T01:55:45.260Z,79.35
2023-11-23T01:58:14.820Z,79.77
2023-11-23T02:00:42.679Z,79.64
2023-11-23T02:03:10.036Z,79.20
2023-11-23T02:05:36.680Z,79.39
2023-11-23T02:08:03.411Z,79.08
2023-11-23T02:10:29.908Z,79.05
2023-11-23T02:12:56.460Z,79.79
2023-11-23T02:15:23.550Z,79.17
2023-11-23T02:18:06.017Z,79.88
2023-11-23T02:20:32.634Z,79.27
2023-11-23T02:22:59.261Z,80.52
2023-11-23T02:25:25.732Z,79.98
2023-11-23T02:27:52.941Z,79.18
2023-11-23T02:30:25.750Z,80.07
2023-11-23T02:32:52.441Z,80.59
2023-11-23T02:35:19.503Z,81.22
2023-11-23T02:37:46.132Z,81.50
2023-11-23T02:40:12.865Z,82.21
2023-11-23T02:42:41.870Z,83.39
2023-11-23T02:45:10.227Z,83.32
2023-11-23T02:47:37.274Z,83.99
2023-11-23T02:50:04.359Z,83.19
2023-11-23T02:52:31.290Z,83.92
2023-11-23T02:54:57.785Z,84.87
2023-11-23T02:57:24.272Z,86.15
2023-11-23T02:59:51.264Z,87.36
2023-11-23T03:02:18.654Z,87.24
2023-11-23T03:04:45.321Z,87.98
2023-11-23T03:07:11.927Z,87.96
2023-11-23T03:09:38.554Z,88.96
2023-11-23T03:12:05.523Z,88.49
2023-11-23T03:14:32.725Z,88.07
2023-11-23T03:16:59.197Z,88.54
2023-11-23T03:19:25.708Z,89.52
2023-11-23T03:21:52.728Z,89.38
2023-11-23T03:24:19.313Z,89.03
2023-11-23T03:26:45.864Z,90.28
2023-11-23T03:29:13.012Z,90.47
2023-11-23T03:31:39.495Z,91.07
2023-11-23T03:34:06.548Z,90.52
2023-11-23T03:36:33.332Z,90.48
2023-11-23T03:38:59.880Z,90.86
2023-11-23T03:41:26.424Z,90.51
2023-11-23T03:43:53.308Z,90.73
2023-11-23T03:46:19.879Z,90.74
2023-11-23T03:48:46.436Z,89.97
2023-11-23T03:51:13.088Z,90.05
2023-11-23T03:53:39.794Z,89.97
2023-11-23T03:56:06.925Z,89.35
2023-11-23T03:58:33.376Z,89.26
2023-11-23T04:00:59.852Z,89.17
2023-11-23T04:03:26.549Z,89.38
2023-11-23T04:05:53.049Z,89.09
2023-11-23T04:08:19.595Z,88.59
2023-11-23T04:10:46.145Z,86.82
2023-11-23T04:13:12.692Z,86.54
2023-11-23T04:15:39.773Z,86.10
2023-11-23T04:18:06.343Z,87.57
2023-11-23T04:20:33.943Z,89.42
2023-11-23T04:23:00.550Z,89.72
2023-11-23T04:25:27.021Z,89.47
2023-11-23T04:27:53.464Z,89.80
2023-11-23T04:30:19.943Z,88.10
2023-11-23T04:32:46.653Z,88.57
2023-11-23T04:35:14.693Z,89.26
2023-11-23T04:37:41.146Z,89.70
2023-11-23T04:40:08.462Z,88.94
2023-11-23T04:42:36.320Z,88.87
2023-11-23T04:45:02.967Z,89.56
2023-11-23T04:47:30.155Z,88.56
2023-11-23T04:49:56.694Z,89.47
2023-11-23T04:52:23.411Z,89.58
2023-11-23T04:54:49.892Z,89.42
2023-11-23T04:57:16.463Z,89.86
2023-11-23T04:59:43.082Z,89.92
2023-11-23T05:02:09.741Z,90.58
2023-11-23T05:04:36.293Z,90.48
2023-11-23T05:07:03.145Z,91.53
2023-11-23T05:09:29.647Z,91.14
2023-11-23T05:11:59.040Z,90.89
2023-11-23T05:14:26.171Z,90.73
2023-11-23T05:16:52.782Z,90.33
2023-11-23T05:19:31.556Z,90.66
2023-11-23T05:22:06.015Z,89.97
2023-11-23T05:24:35.874Z,90.18
2023-11-23T05:27:02.726Z,90.18
2023-11-23T05:29:29.219Z,90.32
2023-11-23T05:31:55.714Z,89.40
2023-11-23T05:34:22.286Z,89.89
2023-11-23T05:36:49.280Z,89.70
2023-11-23T05:39:16.030Z,88.82
2023-11-23T05:41:42.582Z,88.82
2023-11-23T05:44:09.121Z,89.43
2023-11-23T05:46:35.662Z,89.21
2023-11-23T05:49:02.882Z,89.65
2023-11-23T05:51:29.900Z,88.96
2023-11-23T05:53:56.407Z,88.98
2023-11-23T05:56:22.864Z,88.53
2023-11-23T05:58:49.884Z,89.71
2023-11-23T06:01:16.619Z,89.24
2023-11-23T06:03:43.327Z,89.68
2023-11-23T06:06:19.227Z,89.99
2023-11-23T06:08:46.170Z,89.79
2023-11-23T06:11:16.302Z,89.54
2023-11-23T06:13:45.852Z,89.33
2023-11-23T06:16:15.141Z,88.82
2023-11-23T06:18:42.796Z,89.94
2023-11-23T06:21:09.365Z,89.52
2023-11-23T06:23:35.972Z,88.83
2023-11-23T06:26:02.478Z,89.08
2023-11-23T06:28:29.008Z,90.40
2023-11-23T06:30:55.474Z,89.42
2023-11-23T06:33:22.175Z,90.01
2023-11-23T06:35:48.758Z,89.56
2023-11-23T06:38:17.677Z,89.75
2023-11-23T06:40:44.160Z,89.52
2023-11-23T06:43:10.679Z,90.24
2023-11-23T06:45:37.123Z,90.13
2023-11-23T06:48:03.711Z,89.97
2023-11-23T06:50:31.304Z,90.22
2023-11-23T06:52:57.833Z,90.27
2023-11-23T06:55:24.321Z,90.03
2023-11-23T06:57:50.803Z,90.35
2023-11-23T07:00:18.792Z,90.36
2023-11-23T07:02:45.402Z,90.64
2023-11-23T07:05:13.297Z,90.90
2023-11-23T07:07:40.028Z,90.50
2023-11-23T07:10:07.108Z,90.20
2023-11-23T07:12:33.710Z,90.38
2023-11-23T07:15:00.883Z,91.23
2023-11-23T07:17:30.499Z,90.92
2023-11-23T07:19:57.076Z,91.36
2023-11-23T07:22:23.657Z,90.85
2023-11-23T07:24:50.985Z,90.58
2023-11-23T07:27:18.253Z,90.45
2023-11-23T07:29:49.931Z,90.88
2023-11-23T07:32:18.775Z,91.13
2023-11-23T07:34:46.235Z,91.31
2023-11-23T07:37:13.722Z,90.84
2023-11-23T07:39:40.405Z,91.03
2023-11-23T07:42:07.234Z,90.90
2023-11-23T07:44:34.056Z,90.76
2023-11-23T07:47:00.825Z,90.90
2023-11-23T07:49:27.836Z,90.88
2023-11-23T07:51:55.793Z,90.65
2023-11-23T07:54:23.109Z,90.30
2023-11-23T07:56:49.700Z,90.51
2023-11-23T07:59:16.147Z,90.83
2023-11-23T08:01:42.620Z,91.43
2023-11-23T08:04:09.311Z,90.78
2023-11-23T08:06:35.944Z,90.28
2023-11-23T08:09:02.622Z,90.82
2023-11-23T08:11:29.626Z,90.47
2023-11-23T08:13:56.548Z,90.71
2023-11-23T08:16:23.066Z,90.15
2023-11-23T08:18:50.486Z,90.33
2023-11-23T08:21:19.008Z,89.91
2023-11-23T08:23:45.551Z,90.43
2023-11-23T08:26:12.180Z,90.29
2023-11-23T08:28:38.815Z,90.02
2023-11-23T08:31:07.995Z,89.72
2023-11-23T08:33:34.711Z,89.23
2023-11-23T08:36:01.328Z,89.57
2023-11-23T08:38:27.783Z,89.54
2023-11-23T08:40:54.287Z,89.32
2023-11-23T08:43:20.846Z,88.90
2023-11-23T08:45:47.357Z,89.15
2023-11-23T08:48:14.465Z,89.19
2023-11-23T08:50:41.574Z,88.97
2023-11-23T08:53:08.067Z,88.36
2023-11-23T08:55:34.579Z,88.01
2023-11-23T08:58:01.089Z,88.38
2023-11-23T09:00:27.719Z,88.41
2023-11-23T09:02:55.159Z,88.81
2023-11-23T09:05:22.732Z,88.50
2023-11-23T09:07:49.777Z,88.22
2023-11-23T09:10:16.817Z,88.04
2023-11-23T09:12:44.234Z,88.56
2023-11-23T09:15:11.332Z,88.03
2023-11-23T09:17:37.970Z,87.43
2023-11-23T09:20:07.179Z,87.31
2023-11-23T09:22:33.770Z,87.65
2023-11-23T09:25:00.695Z,87.47
2023-11-23T09:27:27.551Z,87.72
2023-11-23T09:29:54.268Z,86.52
2023-11-23T09:32:20.885Z,86.80
2023-11-23T09:34:47.338Z,86.67
2023-11-23T09:37:13.831Z,86.72
2023-11-23T09:39:41.697Z,85.60
2023-11-23T09:42:08.565Z,85.74
2023-11-23T09:44:38.806Z,85.84
2023-11-23T09:47:06.660Z,85.80
2023-11-23T09:49:33.850Z,86.87
2023-11-23T09:52:01.031Z,86.03
2023-11-23T09:54:31.493Z,85.66
2023-11-23T09:56:59.261Z,85.44
2023-11-23T09:59:28.234Z,85.44
2023-11-23T10:01:56.163Z,85.26
2023-11-23T10:04:22.869Z,85.00
2023-11-23T10:06:49.468Z,85.68
2023-11-23T10:09:16.992Z,85.09
2023-11-23T10:11:43.918Z,84.95
2023-11-23T10:14:11.769Z,85.43
2023-11-23T10:16:38.690Z,84.70
2023-11-23T10:19:05.212Z,85.18
2023-11-23T10:21:31.933Z,84.86
2023-11-23T10:24:05.496Z,85.31
2023-11-23T10:26:32.391Z,84.88
2023-11-23T10:28:59.720Z,84.96
2023-11-23T10:31:26.287Z,85.08
2023-11-23T10:33:53.201Z,85.11
2023-11-23T10:36:24.793Z,83.96
2023-11-23T10:38:55.664Z,84.26
2023-11-23T10:41:22.600Z,83.43
2023-11-23T10:43:50.539Z,84.23
2023-11-23T10:46:18.990Z,84.07
2023-11-23T10:48:50.055Z,83.57
2023-11-23T10:51:17.302Z,83.60
2023-11-23T10:53:43.853Z,83.09
2023-11-23T10:56:23.603Z,83.70
2023-11-23T10:58:54.021Z,83.75
2023-11-23T11:01:22.916Z,83.63
2023-11-23T11:03:50.301Z,83.44
2023-11-23T11:06:18.414Z,83.59
2023-11-23T11:08:47.016Z,83.43
2023-11-23T11:11:16.997Z,83.28
2023-11-23T11:13:44.190Z,82.58
2023-11-23T11:16:13.753Z,82.26
2023-11-23T11:18:40.428Z,82.85
2023-11-23T11:21:14.678Z,82.95
2023-11-23T11:23:46.349Z,82.50
2023-11-23T11:26:12.807Z,82.01
2023-11-23T11:28:40.719Z,82.63
2023-11-23T11:31:08.740Z,81.80
2023-11-23T11:33:37.291Z,81.96
2023-11-23T11:36:05.120Z,82.40
2023-11-23T11:38:31.859Z,81.84
2023-11-23T11:41:01.716Z,81.24
2023-11-23T11:43:28.250Z,81.37
2023-11-23T11:45:55.133Z,81.36
2023-11-23T11:48:21.775Z,80.69
2023-11-23T11:50:58.520Z,80.89
2023-11-23T11:53:25.196Z,81.12
2023-11-23T11:55:51.702Z,80.32
2023-11-23T11:58:18.609Z,80.26
2023-11-23T12:00:45.817Z,79.80
2023-11-23T12:03:12.507Z,81.46
2023-11-23T12:05:43.311Z,81.80
2023-11-23T12:08:09.933Z,80.83
2023-11-23T12:10:43.416Z,80.77
2023-11-23T12:13:10.187Z,81.10
2023-11-23T12:15:40.572Z,81.00
2023-11-23T12:18:07.472Z,80.95
2023-11-23T12:20:38.231Z,81.52
2023-11-23T12:23:05.563Z,80.92
2023-11-23T12:25:34.322Z,81.89
2023-11-23T12:28:01.635Z,80.98
2023-11-23T12:30:28.163Z,81.70
2023-11-23T12:32:54.763Z,82.58
2023-11-23T12:35:21.254Z,81.52
2023-11-23T12:37:47.939Z,82.14
2023-11-23T12:40:14.635Z,81.91
2023-11-23T12:42:41.232Z,82.51
2023-11-23T12:45:08.118Z,82.61
2023-11-23T12:47:38.291Z,82.87
2023-11-23T12:50:05.427Z,82.63
2023-11-23T12:52:32.196Z,82.18
2023-11-23T12:54:58.684Z,82.45
2023-11-23T12:57:25.212Z,83.04
2023-11-23T12:59:51.769Z,82.51
2023-11-23T13:02:18.439Z,82.47
2023-11-23T13:04:44.957Z,82.97
2023-11-23T13:07:11.789Z,83.08
2023-11-23T13:09:38.492Z,84.05
2023-11-23T13:12:05.476Z,82.92
2023-11-23T13:14:32.398Z,83.18
2023-11-23T13:16:58.936Z,83.11
2023-11-23T13:19:30.727Z,82.91
2023-11-23T13:22:04.549Z,83.59
2023-11-23T13:24:31.674Z,83.08
2023-11-23T13:26:58.175Z,82.69
2023-11-23T13:29:24.952Z,82.81
2023-11-23T13:31:51.510Z,83.25
2023-11-23T13:34:18.112Z,83.89
2023-11-23T13:36:44.936Z,83.17
2023-11-23T13:39:12.489Z,83.58
2023-11-23T13:41:39.026Z,84.56
2023-11-23T13:44:05.689Z,84.08
2023-11-23T13:46:32.383Z,84.06
2023-11-23T13:49:00.298Z,84.07
2023-11-23T13:51:30.279Z,84.94
2023-11-23T13:53:58.185Z,84.33
2023-11-23T13:56:24.984Z,83.95
2023-11-23T13:58:52.438Z,84.43
2023-11-23T14:01:19.154Z,84.38
2023-11-23T14:03:45.829Z,84.06
2023-11-23T14:06:12.351Z,83.47
2023-11-23T14:08:38.889Z,82.68
2023-11-23T14:11:05.461Z,82.71
2023-11-23T14:13:35.267Z,82.88
2023-11-23T14:16:01.883Z,82.46
2023-11-23T14:18:28.535Z,81.33
2023-11-23T14:20:55.333Z,81.96
2023-11-23T14:23:21.834Z,81.54
2023-11-23T14:25:48.296Z,81.06
2023-11-23T14:28:14.850Z,81.21
2023-11-23T14:30:45.193Z,81.03
2023-11-23T14:33:12.379Z,81.03
2023-11-23T14:35:39.459Z,81.30
2023-11-23T14:38:06.026Z,81.57
2023-11-23T14:40:33.325Z,80.89
2023-11-23T14:42:59.884Z,81.08
2023-11-23T14:45:29.266Z,80.20
2023-11-23T14:47:58.450Z,81.24
2023-11-23T14:50:24.946Z,81.05
2023-11-23T14:52:51.403Z,80.78
2023-11-23T14:55:18.048Z,81.29
2023-11-23T14:57:44.724Z,81.04
2023-11-23T15:00:11.910Z,80.63
2023-11-23T15:02:42.293Z,80.28
2023-11-23T15:05:09.379Z,80.70
2023-11-23T15:07:35.888Z,80.42
2023-11-23T15:10:02.456Z,80.68
2023-11-23T15:12:29.138Z,80.83
2023-11-23T15:14:55.728Z,80.88
2023-11-23T15:17:22.439Z,81.08
2023-11-23T15:19:48.917Z,81.06
2023-11-23T15:22:16.036Z,80.85
2023-11-23T15:24:42.536Z,80.63
2023-11-23T15:27:09.141Z,79.72
2023-11-23T15:29:35.925Z,80.69
2023-11-23T15:32:02.445Z,80.43
2023-11-23T15:34:30.213Z,80.93
2023-11-23T15:36:57.091Z,80.58
2023-11-23T15:43:16.251Z,81.08
2023-11-23T15:45:42.760Z,80.88
2023-11-23T15:48:09.925Z,80.85
2023-11-23T15:50:36.929Z,81.04
2023-11-23T15:53:03.712Z,81.07
2023-11-23T15:55:30.504Z,81.63
2023-11-23T15:57:57.176Z,80.94
2023-11-23T16:00:23.976Z,81.15
2023-11-23T16:02:50.903Z,81.12
2023-11-23T16:05:17.660Z,81.25
2023-11-23T16:07:44.494Z,81.22
2023-11-23T16:10:11.401Z,81.12
2023-11-23T16:12:37.938Z,81.35
2023-11-23T16:15:07.018Z,81.67
2023-11-23T16:17:33.783Z,81.93
2023-11-23T16:20:00.520Z,81.45
2023-11-23T16:22:27.008Z,81.99
2023-11-23T16:24:53.581Z,82.12
2023-11-23T16:27:20.852Z,82.18
2023-11-23T16:29:47.348Z,82.42
2023-11-23T16:32:14.021Z,82.49
2023-11-23T16:34:40.646Z,82.05
2023-11-23T16:37:09.311Z,82.89
2023-11-23T16:39:36.990Z,82.63
2023-11-23T16:44:42.176Z,82.56
2023-11-23T16:47:08.909Z,82.59
2023-11-23T16:49:35.480Z,82.75
2023-11-23T16:52:02.070Z,82.52
2023-11-23T16:54:28.545Z,82.73
2023-11-23T16:56:55.618Z,82.69
2023-11-23T16:59:22.777Z,82.93
2023-11-23T17:01:49.370Z,82.79
2023-11-23T17:04:16.395Z,83.02
2023-11-23T17:06:43.319Z,82.53
2023-11-23T17:09:10.076Z,82.83
2023-11-23T17:11:36.885Z,82.81
2023-11-23T17:14:03.770Z,83.17
2023-11-23T17:16:30.387Z,83.41
2023-11-23T17:18:56.960Z,83.18
2023-11-23T17:21:23.397Z,82.82
2023-11-23T17:23:50.395Z,83.22
2023-11-23T17:26:16.903Z,82.83
2023-11-23T17:28:43.492Z,82.95
2023-11-23T17:31:10.760Z,82.93
2023-11-23T17:33:38.703Z,83.26
2023-11-23T17:36:05.885Z,82.80
2023-11-23T17:38:33.095Z,82.78
2023-11-23T17:40:59.774Z,82.98
2023-11-23T17:43:28.525Z,83.37
2023-11-23T17:45:55.727Z,83.48
2023-11-23T17:48:23.492Z,83.43
2023-11-23T17:50:51.823Z,83.11
2023-11-23T17:53:18.392Z,83.20
2023-11-23T17:55:45.123Z,83.13
2023-11-23T17:58:11.657Z,82.54
2023-11-23T18:00:38.294Z,82.71
2023-11-23T18:03:11.590Z,83.02
2023-11-23T18:05:42.100Z,83.03
2023-11-23T18:08:08.761Z,83.26
2023-11-23T18:10:37.091Z,82.83
2023-11-23T18:13:03.565Z,83.21
2023-11-23T18:15:30.216Z,83.57
2023-11-23T18:17:57.004Z,83.67
2023-11-23T18:20:23.679Z,83.60
2023-11-23T18:22:50.489Z,83.92
2023-11-23T18:25:17.424Z,83.70
2023-11-23T18:27:44.103Z,84.46
2023-11-23T18:30:11.122Z,83.68
2023-11-23T18:32:42.470Z,84.36
2023-11-23T18:35:14.896Z,84.69
2023-11-23T18:38:13.385Z,84.95
2023-11-23T18:40:56.687Z,84.63
2023-11-23T18:43:27.944Z,84.87
2023-11-23T18:45:58.907Z,84.87
2023-11-23T18:48:34.898Z,85.67
2023-11-23T18:51:02.436Z,85.35
2023-11-23T18:54:13.204Z,85.47
2023-11-23T18:56:54.171Z,86.11
2023-11-23T18:59:24.831Z,86.19
2023-11-23T19:01:58.396Z,86.01
2023-11-23T19:04:33.210Z,87.29
2023-11-23T19:07:05.121Z,87.54
2023-11-23T19:09:34.210Z,88.78
2023-11-23T19:12:02.954Z,89.32
2023-11-23T19:14:32.115Z,89.35
2023-11-23T19:17:00.139Z,90.02
2023-11-23T19:19:29.374Z,89.93
2023-11-23T19:21:58.013Z,90.32
2023-11-23T19:24:26.745Z,90.39
2023-11-23T19:27:26.800Z,91.11
2023-11-23T19:30:05.247Z,90.98
2023-11-23T19:32:33.794Z,91.38
2023-11-23T19:35:04.481Z,91.71
2023-11-23T19:37:33.589Z,91.79
2023-11-23T19:40:02.713Z,93.16
2023-11-23T19:42:34.869Z,93.58
2023-11-23T19:45:04.409Z,93.88
2023-11-23T19:47:34.731Z,94.64
2023-11-23T19:50:04.073Z,94.15
2023-11-23T19:52:35.310Z,94.62
2023-11-23T19:55:06.029Z,94.92
2023-11-23T19:57:37.952Z,94.78
2023-11-23T20:00:08.971Z,94.74
2023-11-23T20:02:41.990Z,94.49
2023-11-23T20:05:12.427Z,94.80
2023-11-23T20:07:42.061Z,94.74
2023-11-23T20:10:11.297Z,94.86
2023-11-23T20:12:40.311Z,95.31
2023-11-23T20:15:08.736Z,95.21
2023-11-23T20:17:36.794Z,94.90
2023-11-23T20:23:22.042Z,94.88
2023-11-23T20:25:50.803Z,95.82
2023-11-23T20:28:20.273Z,95.41
2023-11-23T20:30:51.359Z,95.40
2023-11-23T20:33:20.976Z,95.52
2023-11-23T20:35:49.492Z,95.44
2023-11-23T20:38:18.638Z,95.16
2023-11-23T20:41:12.319Z,94.45
2023-11-23T20:43:45.391Z,95.15
2023-11-23T20:46:14.940Z,94.96
2023-11-23T20:49:11.583Z,94.36
2023-11-23T20:51:45.634Z,94.27
2023-11-23T20:54:14.461Z,94.68
2023-11-23T20:56:44.126Z,94.36
2023-11-23T20:59:12.069Z,94.98
2023-11-23T21:01:44.133Z,94.14
2023-11-23T21:04:14.924Z,94.92
2023-11-23T21:06:55.559Z,94.65
2023-11-23T21:09:30.540Z,95.27
2023-11-23T21:12:01.684Z,94.72
2023-11-23T21:26:09.534Z,94.32
2023-11-23T21:36:09.571Z,93.21
2023-11-23T21:39:25.819Z,92.71
2023-11-23T21:41:55.141Z,92.89
2023-11-23T21:44:23.616Z,92.92
2023-11-23T21:46:53.683Z,92.97
2023-11-23T21:49:22.473Z,92.79
2023-11-23T21:51:51.235Z,92.45
2023-11-23T21:54:34.599Z,92.42
2023-11-23T21:57:02.933Z,92.16
2023-11-23T22:03:29.297Z,92.40
2023-11-23T22:06:43.839Z,92.38
2023-11-23T22:16:25.087Z,92.03
2023-11-23T22:19:39.119Z,91.98
2023-11-23T22:22:44.393Z,91.57
2023-11-23T22:26:11.747Z,91.26
2023-11-23T22:29:20.634Z,91.14
2023-11-23T22:36:15.525Z,91.17
2023-11-23T22:38:42.639Z,91.21
2023-11-23T22:41:10.004Z,91.22
2023-11-23T22:43:37.359Z,90.96
2023-11-23T22:46:05.378Z,91.30
2023-11-23T22:48:32.542Z,91.07
2023-11-23T22:50:59.155Z,91.30
2023-11-23T22:53:26.225Z,91.31
2023-11-23T22:55:53.007Z,90.88
2023-11-23T22:58:20.220Z,91.30
2023-11-23T23:00:47.214Z,90.53
2023-11-23T23:03:14.584Z,90.99
2023-11-23T23:05:42.040Z,91.24
2023-11-23T23:08:09.330Z,91.25
2023-11-23T23:10:36.443Z,90.86
2023-11-23T23:13:03.935Z,90.67
2023-11-23T23:15:31.127Z,91.19
2023-11-23T23:17:58.097Z,91.72
2023-11-23T23:20:25.470Z,92.04
2023-11-23T23:22:56.216Z,91.97
2023-11-23T23:25:23.155Z,92.18
2023-11-23T23:27:50.392Z,92.69
2023-11-23T23:30:17.897Z,93.42
2023-11-23T23:32:44.906Z,93.39
2023-11-23T23:35:12.480Z,93.30
2023-11-23T23:37:40.354Z,92.51
2023-11-23T23:40:09.316Z,92.73
2023-11-23T23:42:36.866Z,92.85
2023-11-23T23:45:04.317Z,92.32
2023-11-23T23:47:31.477Z,92.34
2023-11-23T23:49:58.538Z,92.43
2023-11-23T23:52:25.641Z,92.41
2023-11-23T23:54:52.309Z,92.60
2023-11-23T23:57:19.189Z,92.28
2023-11-23T23:59:46.307Z,92.08
